Flight Track Log - Related Links

Times and Time Zones

All times are in EDT time to prevent confusion due to time zone crossing. See the N326CP flight status page for this flight to view local times or setup timezone preferences in your user account.

Time Position Orientation Groundspeed Altitude Reporting Facility
EDT Latitude Longitude Course Direction KTS MPH feet Rate Location/Type
Thu 07:24:54 PM 32.2719 -90.4894 256° West 143 165 2,300  Level Memphis Center
Thu 07:25:56 PM 32.2519 -90.5311 240° Southwest 143 165 3,200 871 Climbing Memphis Center
Thu 07:26:58 PM 32.2344 -90.5717 243° Southwest 143 165 4,100 871 Climbing Memphis Center
Thu 07:28:00 PM 32.2169 -90.6111 242° Southwest 142 163 5,000 823 Climbing Memphis Center
Thu 07:29:02 PM 32.1983 -90.6494 240° Southwest 141 162 5,800 484 Climbing Memphis Center
Thu 07:30:04 PM 32.1750 -90.7022 242° Southwest 144 166 6,000 97 Climbing Memphis Center
Thu 07:31:06 PM 32.1511 -90.7525 241° Southwest 162 186 6,000  Level Memphis Center
Thu 07:32:08 PM 32.1292 -90.8061 244° Southwest 173 199 6,000  Level Memphis Center
Thu 07:33:10 PM 32.1081 -90.8564 244° Southwest 175 201 6,000  Level Memphis Center
Thu 07:34:13 PM 32.0869 -90.9000 240° Southwest 167 192 6,000  Level Memphis Center
Thu 07:35:15 PM 32.0636 -90.9544 243° Southwest 160 184 6,000  Level Memphis Center
Thu 07:36:17 PM 32.0425 -90.9983 240° Southwest 160 184 6,000 -242 Level Memphis Center
Thu 07:37:19 PM 32.0217 -91.0444 242° Southwest 160 184 5,500 -484 Descending Memphis Center
Thu 07:38:21 PM 32.0008 -91.0969 245° Southwest 167 192 5,000 -484 Descending Memphis Center
Thu 07:39:23 PM 31.9758 -91.1486 240° Southwest 176 203 4,500 -484 Descending Memphis Center
Thu 07:40:25 PM 31.9483 -91.2114 243° Southwest 177 204 4,000 -242 Descending Memphis Center
Thu 07:41:27 PM 31.9272 -91.2608 243° Southwest 177 204 4,000  Level Memphis Center
Thu 07:42:29 PM 31.9050 -91.3078 241° Southwest 171 197 4,000  Level Memphis Center
Thu 07:43:31 PM 31.8817 -91.3589 242° Southwest 168 193 4,000  Level Memphis Center
Thu 07:44:41 PM 31.8592 -91.4125 244° Southwest 190 219 4,000  Level Houston Center
Thu 07:45:43 PM 31.8383 -91.4603 243° Southwest 164 189 4,000  Level Houston Center
Thu 07:46:45 PM 31.8175 -91.5078 243° Southwest 164 189 4,000  Level Houston Center
Thu 07:47:47 PM 31.7903 -91.5639 240° Southwest 164 189 4,000  Level Houston Center
Thu 07:48:24 PM 31.7772 -91.5933 242° Southwest 166 191 4,000  Level Houston Center
Thu 07:48:49 PM 31.7681 -91.6114 239° Southwest 164 189 4,000  Level Houston Center
Thu 07:49:51 PM 31.7464 -91.6603 242° Southwest 164 189 4,000  Level Houston Center
Thu 07:50:53 PM 31.7239 -91.7072 241° Southwest 165 190 4,000  Level Houston Center
Thu 07:51:56 PM 31.7014 -91.7544 241° Southwest 165 190 4,000  Level Houston Center
Thu 07:52:57 PM 31.6794 -91.8017 241° Southwest 165 190 4,000  Level Houston Center
Thu 07:53:58 PM 31.6578 -91.8503 242° Southwest 166 191 4,000  Level Houston Center
Thu 07:54:58 PM 31.6303 -91.9069 240° Southwest 167 192 4,000  Level Houston Center
Thu 07:56:04 PM 31.6106 -91.9550 244° Southwest 165 190 4,000  Level Houston Center
Thu 07:57:06 PM 31.5883 -92.0031 242° Southwest 165 190 4,000  Level Houston Center
Thu 07:58:00 PM 31.5653 -92.0528 241° Southwest 169 194 4,000  Level Houston Center
Thu 07:59:01 PM 31.5436 -92.1014 242° Southwest 169 194 4,000  Level Houston Center
Thu 08:00:01 PM 31.5197 -92.1500 240° Southwest 169 194 4,000  Level Houston Center
Thu 08:00:13 PM 31.5169 -92.1578 247° West 166 191 4,000  Level Houston Center
Thu 08:01:02 PM 31.4981 -92.1986 242° Southwest 170 196 4,000  Level Houston Center
Thu 08:01:15 PM 31.4942 -92.2064 240° Southwest 166 191 4,000  Level Houston Center
Thu 08:02:08 PM 31.4722 -92.2522 241° Southwest 170 196 4,000  Level Houston Center
Thu 08:03:09 PM 31.4464 -92.3011 238° Southwest 169 194 4,000  Level Houston Center
Thu 08:03:19 PM 31.4475 -92.3019 327° Northwest 166 191 4,000  Level Houston Center
Thu 08:04:21 PM 31.4222 -92.3478 237° Southwest 166 191 4,000  Level Houston Center
Thu 08:05:10 PM 31.3986 -92.3983 241° Southwest 170 196 4,000  Level Houston Center
Thu 08:05:23 PM 31.3956 -92.4067 247° West 167 192 4,000  Level Houston Center
Thu 08:06:11 PM 31.3767 -92.4467 241° Southwest 173 199 4,000  Level Houston Center
Thu 08:06:25 PM 31.3725 -92.4558 242° Southwest 167 192 4,000  Level Houston Center
Thu 08:07:05 PM 31.3564 -92.4875 239° Southwest 173 199 4,000  Level Houston Center
Thu 08:07:28 PM 31.3497 -92.5044 245° Southwest 169 194 4,000  Level Houston Center
Thu 08:08:06 PM 31.3328 -92.5408 241° Southwest 174 200 4,000  Level Houston Center
Thu 08:08:30 PM 31.3278 -92.5508 240° Southwest 169 194 4,000  Level Houston Center
Thu 08:09:07 PM 31.3089 -92.5944 243° Southwest 176 203 4,000  Level Houston Center
Thu 08:09:32 PM 31.3014 -92.6094 240° Southwest 170 196 4,000  Level Houston Center
Thu 08:10:07 PM 31.2869 -92.6403 241° Southwest 175 201 4,000  Level Houston Center
Thu 08:10:34 PM 31.2783 -92.6589 242° Southwest 173 199 4,000  Level Houston Center
Thu 08:11:08 PM 31.2631 -92.6936 243° Southwest 177 204 4,000  Level Houston Center
Thu 08:11:36 PM 31.2547 -92.7094 238° Southwest 174 200 4,000  Level Houston Center
Thu 08:12:08 PM 31.2392 -92.7419 241° Southwest 176 203 4,000  Level Houston Center
Thu 08:12:38 PM 31.2317 -92.7592 243° Southwest 174 200 4,000  Level Houston Center
Thu 08:13:09 PM 31.2153 -92.7928 240° Southwest 174 200 4,000  Level Houston Center
Thu 08:13:40 PM 31.2083 -92.8086 243° Southwest 174 200 4,000  Level Houston Center
Thu 08:14:10 PM 31.1931 -92.8411 241° Southwest 172 198 4,000  Level Houston Center
Thu 08:14:42 PM 31.1817 -92.8664 242° Southwest 173 199 4,000  Level Houston Center
Thu 08:15:10 PM 31.1692 -92.8917 240° Southwest 169 194 4,000  Level Houston Center
Thu 08:15:45 PM 31.1594 -92.9144 243° Southwest 172 198 4,000  Level Houston Center
Thu 08:16:11 PM 31.1492 -92.9372 242° Southwest 167 192 4,000  Level Houston Center
Thu 08:16:47 PM 31.1367 -92.9619 239° Southwest 171 197 4,000  Level Houston Center
Thu 08:17:12 PM 31.1250 -92.9856 240° Southwest 166 191 4,000  Level Houston Center
Thu 08:17:49 PM 31.1147 -93.0092 243° Southwest 170 196 4,000  Level Houston Center
Thu 08:18:12 PM 31.1031 -93.0361 243° Southwest 165 190 4,000  Level Houston Center
Thu 08:18:51 PM 31.0933 -93.0561 240° Southwest 168 193 4,000  Level Houston Center
Thu 08:19:13 PM 31.0808 -93.0819 241° Southwest 164 189 4,000  Level Houston Center
Thu 08:19:53 PM 31.0658 -93.1114 239° Southwest 167 192 4,000  Level Houston Center
Thu 08:20:13 PM 31.0586 -93.1300 246° West 165 190 4,000  Level Houston Center
Thu 08:20:55 PM 31.0442 -93.1594 240° Southwest 167 192 4,000  Level Houston Center
Thu 08:21:14 PM 31.0364 -93.1756 241° Southwest 165 190 4,000  Level Houston Center
Thu 08:21:57 PM 31.0219 -93.2061 241° Southwest 167 192 4,000  Level Houston Center
Thu 08:22:14 PM 31.0139 -93.2211 238° Southwest 165 190 4,000  Level Houston Center
Thu 08:22:59 PM 30.9997 -93.2525 242° Southwest 166 191 4,000  Level Houston Center
Thu 08:23:15 PM 30.9919 -93.2692 241° Southwest 164 189 4,000  Level Houston Center
Thu 08:24:02 PM 30.9775 -93.2964 238° Southwest 166 191 4,000  Level Houston Center
Thu 08:25:04 PM 30.9519 -93.3519 242° Southwest 166 191 4,000  Level Houston Center
Thu 08:26:06 PM 30.9292 -93.3981 240° Southwest 165 190 4,000  Level Houston Center
Thu 08:27:08 PM 30.9075 -93.4447 242° Southwest 165 190 4,000  Level Houston Center
Thu 08:28:10 PM 30.8856 -93.4919 242° Southwest 166 191 4,000  Level Houston Center
Thu 08:29:12 PM 30.8628 -93.5386 240° Southwest 166 191 4,000  Level Houston Center
Thu 08:30:14 PM 30.8367 -93.5958 242° Southwest 167 192 4,000  Level Houston Center
Thu 08:31:16 PM 30.8139 -93.6422 240° Southwest 166 191 4,000  Level Houston Center
Thu 08:32:19 PM 30.7911 -93.6897 241° Southwest 167 192 4,000  Level Houston Center
Thu 08:33:21 PM 30.7692 -93.7369 242° Southwest 167 192 4,000  Level Houston Center
Thu 08:34:23 PM 30.7467 -93.7847 241° Southwest 168 193 4,000  Level Houston Center
Thu 08:35:25 PM 30.7197 -93.8414 241° Southwest 168 193 4,000  Level Houston Center
Thu 08:36:17 PM 30.6986 -93.8828 239° Southwest 168 193 4,000  Level Houston Center
Thu 08:36:27 PM 30.6958 -93.8883 240° Southwest 168 193 4,000  Level Houston Center
Thu 08:37:29 PM 30.6736 -93.9353 241° Southwest 168 193 4,000  Level Houston Center
Thu 08:37:43 PM 30.6656 -93.9528 242° Southwest 169 194 4,000  Level Houston Center
Thu 08:38:31 PM 30.6514 -93.9822 241° Southwest 168 193 4,000  Level Houston Center
Thu 08:38:44 PM 30.6428 -93.9972 236° Southwest 166 191 4,000  Level Houston Center
Thu 08:39:33 PM 30.6297 -94.0275 243° Southwest 166 191 4,000  Level Houston Center
Thu 08:39:45 PM 30.6206 -94.0464 241° Southwest 164 189 4,000  Level Houston Center
Thu 08:40:41 PM 30.5992 -94.0858 238° Southwest 163 188 4,000  Level Houston Center
Thu 08:41:37 PM 30.5808 -94.1283 243° Southwest 165 190 4,000  Level Houston Center
Thu 08:41:54 PM 30.5733 -94.1428 239° Southwest 163 188 4,000  Level Houston Center
Thu 08:42:39 PM 30.5600 -94.1736 243° Southwest 164 189 4,000  Level Houston Center
Thu 08:43:42 PM 30.5375 -94.2194 240° Southwest 163 188 4,000  Level Houston Center
Thu 08:44:44 PM 30.5147 -94.2664 241° Southwest 164 189 4,000  Level Houston Center
Thu 08:44:58 PM 30.5056 -94.2828 237° Southwest 164 189 4,000  Level Houston Center
Thu 08:45:46 PM 30.4928 -94.3122 243° Southwest 164 189 4,000  Level Houston Center
Thu 08:45:59 PM 30.4828 -94.3294 236° Southwest 164 189 4,000  Level Houston Center
Thu 08:46:48 PM 30.4636 -94.3681 240° Southwest 168 193 4,000  Level Houston Center
Thu 08:47:00 PM 30.4583 -94.3789 241° Southwest 168 193 4,000  Level Houston Center
Thu 08:47:50 PM 30.4417 -94.4144 241° Southwest 168 193 4,000  Level Houston Center
Thu 08:49:03 PM 30.4108 -94.4747 239° Southwest 169 194 4,000  Level Houston Center
Thu 08:49:54 PM 30.3961 -94.5094 244° Southwest 170 196 4,000  Level Houston Center
Thu 08:50:04 PM 30.3883 -94.5236 238° Southwest 170 196 4,000  Level Houston Center
Thu 08:50:56 PM 30.3722 -94.5575 241° Southwest 171 197 4,000  Level Houston Center
Thu 08:51:58 PM 30.3444 -94.6133 240° Southwest 170 196 4,000  Level Houston Center
Thu 08:53:00 PM 30.3203 -94.6628 240° Southwest 174 200 4,000  Level Houston Center
Thu 08:54:02 PM 30.3117 -94.7144 259° West 168 193 4,000  Level Houston Center
Thu 08:55:04 PM 30.3011 -94.7722 258° West 166 191 4,000  Level Houston Center
Thu 08:56:11 PM 30.2900 -94.8319 258° West 169 194 4,000  Level Houston Center
Thu 08:57:08 PM 30.2844 -94.8728 261° West 168 193 4,000 -303 Level Houston Center
Thu 08:58:10 PM 30.2742 -94.9397 260° West 177 204 3,400 -496 Descending Houston Center
Thu 08:59:09 PM 30.2658 -94.9994 261° West 187 215 3,000 -200 Descending Houston Center
Thu 09:00:10 PM 30.2606 -95.0558 264° West 171 197 3,000  Level Houston Center
Thu 09:01:15 PM 30.2547 -95.1083 263° West 176 203 3,000  Level Houston Center
Thu 09:02:17 PM 30.2492 -95.1622 263° West 173 199 3,000  Level Houston Center
Thu 09:03:14 PM 30.2425 -95.2225 263° West 173 199 3,000  Level Houston Center
Thu 09:04:15 PM 30.2353 -95.2814 262° West 174 200 3,000  Level Houston Center
Thu 09:05:22 PM 30.2281 -95.3403 262° West 171 197 3,000  Level Houston Center
Thu 09:06:23 PM 30.2206 -95.3969 261° West 174 200 3,000 -244 Level Houston Center
Thu 09:07:25 PM 30.2136 -95.4581 263° West 190 219 2,500 -432 Descending Houston Center
Thu 09:08:28 PM 30.2081 -95.5103 263° West 185 213 2,100 -259 Descending Houston Center
Thu 09:09:21 PM 30.1783 -95.5567 233° Southwest 164 189 2,000 -53 Descending Houston Center
Thu 09:10:22 PM 30.1483 -95.5964 229° Southwest 165 190 2,000  Level Houston Center
Thu 09:10:32 PM 30.1439 -95.6008 221° Southwest 169 194 2,000  Level Houston Center
Thu 09:11:23 PM 30.1181 -95.6339 228° Southwest 158 182 2,000  Level Houston Center
Thu 09:11:33 PM 30.1131 -95.6389 221° Southwest 166 191 2,000  Level Houston Center
Thu 09:12:30 PM 30.0861 -95.6739 228° Southwest 146 168 2,000  Level Houston Center
Thu 09:13:25 PM 30.0617 -95.7056 228° Southwest 145 167 2,000  Level Houston Center
Thu 09:13:37 PM 30.0592 -95.7067 201° Southwest 150 173 2,000  Level Houston Center
Thu 09:14:32 PM 30.0292 -95.7431 226° Southwest 145 167 2,000  Level Houston Center
Thu 09:15:34 PM 30.0000 -95.7706 219° Southwest 144 166 2,000 -92 Level Houston Center
Thu 09:16:42 PM 29.9689 -95.7539 155° Southeast 138 159 1,800 -155 Descending Houston Center
Thu 09:17:30 PM 29.9406 -95.7392 156° South 100 115 1,700 -97 Descending Houston Center
Thu 09:17:44 PM 29.9344 -95.7353 151° Southeast 125 144 1,700  Level Houston Center
Thu 09:18:45 PM 29.9125 -95.7239 156° South 104 120 1,700  Level Houston Center
Thu 09:19:47 PM 29.8906 -95.7117 154° Southeast 100 115 1,700  Level Houston Center

Login

Don't have an account? Register now (free) for customized features, flight alerts, and more!